sensor_id;sensor_type;location;lat;lon;timestamp;P1;durP1;ratioP1;P2;durP2;ratioP2
31073;SDS011;17730;53.552;9.940;2022-10-17T00:02:15;13.13;;;5.60;;
31073;SDS011;17730;53.552;9.940;2022-10-17T00:04:40;18.27;;;5.45;;
31073;SDS011;17730;53.552;9.940;2022-10-17T00:07:06;14.75;;;4.97;;
31073;SDS011;17730;53.552;9.940;2022-10-17T00:09:31;18.00;;;5.40;;
31073;SDS011;17730;53.552;9.940;2022-10-17T00:11:57;17.85;;;5.13;;
31073;SDS011;17730;53.552;9.940;2022-10-17T00:14:23;17.45;;;4.90;;
31073;SDS011;17730;53.552;9.940;2022-10-17T00:16:48;18.65;;;4.18;;
31073;SDS011;17730;53.552;9.940;2022-10-17T00:19:14;14.13;;;4.22;;
31073;SDS011;17730;53.552;9.940;2022-10-17T00:21:39;17.63;;;4.20;;
31073;SDS011;17730;53.552;9.940;2022-10-17T00:24:05;16.25;;;5.18;;
31073;SDS011;17730;53.552;9.940;2022-10-17T00:26:31;12.02;;;4.68;;
31073;SDS011;17730;53.552;9.940;2022-10-17T00:28:57;16.38;;;4.03;;
31073;SDS011;17730;53.552;9.940;2022-10-17T00:31:22;9.75;;;3.97;;
31073;SDS011;17730;53.552;9.940;2022-10-17T00:33:49;13.85;;;4.53;;
31073;SDS011;17730;53.552;9.940;2022-10-17T00:36:19;13.68;;;4.47;;
31073;SDS011;17730;53.552;9.940;2022-10-17T00:38:48;15.75;;;4.43;;
31073;SDS011;17730;53.552;9.940;2022-10-17T00:41:17;10.38;;;4.40;;
31073;SDS011;17730;53.552;9.940;2022-10-17T00:46:31;9.82;;;4.22;;
31073;SDS011;17730;53.552;9.940;2022-10-17T00:48:59;11.77;;;4.50;;
31073;SDS011;17730;53.552;9.940;2022-10-17T00:51:31;10.48;;;4.60;;
31073;SDS011;17730;53.552;9.940;2022-10-17T00:54:00;13.15;;;5.70;;
31073;SDS011;17730;53.552;9.940;2022-10-17T00:56:26;12.15;;;3.97;;
31073;SDS011;17730;53.552;9.940;2022-10-17T00:58:53;10.35;;;4.90;;
31073;SDS011;17730;53.552;9.940;2022-10-17T01:01:19;15.05;;;5.25;;
31073;SDS011;17730;53.552;9.940;2022-10-17T01:03:45;13.95;;;4.90;;
31073;SDS011;17730;53.552;9.940;2022-10-17T01:06:10;8.73;;;4.10;;
31073;SDS011;17730;53.552;9.940;2022-10-17T01:08:36;8.90;;;4.68;;
31073;SDS011;17730;53.552;9.940;2022-10-17T01:13:53;16.73;;;4.68;;
31073;SDS011;17730;53.552;9.940;2022-10-17T01:19:01;16.70;;;4.63;;
31073;SDS011;17730;53.552;9.940;2022-10-17T01:21:41;15.52;;;5.10;;
31073;SDS011;17730;53.552;9.940;2022-10-17T01:24:39;18.40;;;5.13;;
31073;SDS011;17730;53.552;9.940;2022-10-17T01:33:03;9.23;;;4.60;;
31073;SDS011;17730;53.552;9.940;2022-10-17T01:35:40;11.07;;;4.70;;
31073;SDS011;17730;53.552;9.940;2022-10-17T01:38:20;12.57;;;4.57;;
31073;SDS011;17730;53.552;9.940;2022-10-17T01:41:00;10.02;;;4.68;;
31073;SDS011;17730;53.552;9.940;2022-10-17T01:43:47;14.38;;;4.65;;
31073;SDS011;17730;53.552;9.940;2022-10-17T01:46:21;15.73;;;5.22;;
31073;SDS011;17730;53.552;9.940;2022-10-17T01:48:52;7.43;;;4.78;;
31073;SDS011;17730;53.552;9.940;2022-10-17T01:51:22;12.23;;;4.40;;
31073;SDS011;17730;53.552;9.940;2022-10-17T01:56:26;7.75;;;3.42;;
31073;SDS011;17730;53.552;9.940;2022-10-17T01:58:56;12.90;;;4.07;;
31073;SDS011;17730;53.552;9.940;2022-10-17T02:01:27;7.55;;;4.40;;
31073;SDS011;17730;53.552;9.940;2022-10-17T02:03:54;9.32;;;3.75;;
31073;SDS011;17730;53.552;9.940;2022-10-17T02:06:22;9.55;;;3.40;;
31073;SDS011;17730;53.552;9.940;2022-10-17T02:08:49;10.75;;;3.97;;
31073;SDS011;17730;53.552;9.940;2022-10-17T02:24:52;14.30;;;4.05;;
31073;SDS011;17730;53.552;9.940;2022-10-17T02:31:21;14.52;;;3.80;;
31073;SDS011;17730;53.552;9.940;2022-10-17T02:33:34;9.65;;;3.20;;
31073;SDS011;17730;53.552;9.940;2022-10-17T02:36:08;9.75;;;3.75;;
31073;SDS011;17730;53.552;9.940;2022-10-17T02:38:38;8.25;;;3.38;;
31073;SDS011;17730;53.552;9.940;2022-10-17T02:41:06;11.15;;;3.30;;
31073;SDS011;17730;53.552;9.940;2022-10-17T02:43:35;10.07;;;3.13;;
31073;SDS011;17730;53.552;9.940;2022-10-17T02:46:02;9.25;;;3.13;;
31073;SDS011;17730;53.552;9.940;2022-10-17T02:48:36;11.40;;;3.15;;
31073;SDS011;17730;53.552;9.940;2022-10-17T02:51:11;8.40;;;2.92;;
31073;SDS011;17730;53.552;9.940;2022-10-17T02:56:29;5.43;;;3.28;;
31073;SDS011;17730;53.552;9.940;2022-10-17T03:01:27;5.78;;;2.60;;
31073;SDS011;17730;53.552;9.940;2022-10-17T03:04:15;5.53;;;2.92;;
31073;SDS011;17730;53.552;9.940;2022-10-17T03:06:40;16.33;;;3.67;;
31073;SDS011;17730;53.552;9.940;2022-10-17T03:09:06;8.38;;;2.80;;
31073;SDS011;17730;53.552;9.940;2022-10-17T03:11:32;6.35;;;2.90;;
31073;SDS011;17730;53.552;9.940;2022-10-17T03:13:58;6.53;;;2.75;;
31073;SDS011;17730;53.552;9.940;2022-10-17T03:16:23;7.65;;;2.75;;
31073;SDS011;17730;53.552;9.940;2022-10-17T03:18:49;7.95;;;3.38;;
31073;SDS011;17730;53.552;9.940;2022-10-17T03:21:15;7.40;;;2.72;;
31073;SDS011;17730;53.552;9.940;2022-10-17T03:23:40;7.68;;;2.70;;
31073;SDS011;17730;53.552;9.940;2022-10-17T03:26:06;9.27;;;3.40;;
31073;SDS011;17730;53.552;9.940;2022-10-17T03:28:32;7.03;;;3.50;;
31073;SDS011;17730;53.552;9.940;2022-10-17T03:30:58;5.43;;;3.00;;
31073;SDS011;17730;53.552;9.940;2022-10-17T03:33:24;9.50;;;3.20;;
31073;SDS011;17730;53.552;9.940;2022-10-17T03:35:49;7.75;;;3.17;;
31073;SDS011;17730;53.552;9.940;2022-10-17T03:38:15;9.73;;;3.03;;
31073;SDS011;17730;53.552;9.940;2022-10-17T03:40:40;14.90;;;3.50;;
31073;SDS011;17730;53.552;9.940;2022-10-17T03:43:06;8.80;;;2.85;;
31073;SDS011;17730;53.552;9.940;2022-10-17T03:45:32;5.78;;;2.75;;
31073;SDS011;17730;53.552;9.940;2022-10-17T03:47:58;6.15;;;2.47;;
31073;SDS011;17730;53.552;9.940;2022-10-17T03:50:23;11.25;;;3.20;;
31073;SDS011;17730;53.552;9.940;2022-10-17T03:52:49;10.27;;;2.92;;
31073;SDS011;17730;53.552;9.940;2022-10-17T03:55:15;11.43;;;2.75;;
31073;SDS011;17730;53.552;9.940;2022-10-17T03:57:41;10.23;;;3.20;;
31073;SDS011;17730;53.552;9.940;2022-10-17T04:00:07;7.35;;;3.40;;
31073;SDS011;17730;53.552;9.940;2022-10-17T04:02:33;17.15;;;3.38;;
31073;SDS011;17730;53.552;9.940;2022-10-17T04:04:59;6.10;;;2.97;;
31073;SDS011;17730;53.552;9.940;2022-10-17T04:07:25;7.18;;;3.13;;
31073;SDS011;17730;53.552;9.940;2022-10-17T04:09:51;11.40;;;3.08;;
31073;SDS011;17730;53.552;9.940;2022-10-17T04:12:16;10.35;;;3.03;;
31073;SDS011;17730;53.552;9.940;2022-10-17T04:14:42;6.72;;;3.17;;
31073;SDS011;17730;53.552;9.940;2022-10-17T04:17:07;8.18;;;2.97;;
31073;SDS011;17730;53.552;9.940;2022-10-17T04:19:33;9.63;;;2.67;;
31073;SDS011;17730;53.552;9.940;2022-10-17T04:21:59;8.15;;;3.00;;
31073;SDS011;17730;53.552;9.940;2022-10-17T04:24:27;4.50;;;2.40;;
31073;SDS011;17730;53.552;9.940;2022-10-17T04:26:52;6.88;;;2.78;;
31073;SDS011;17730;53.552;9.940;2022-10-17T04:29:18;8.93;;;2.42;;
31073;SDS011;17730;53.552;9.940;2022-10-17T04:31:44;4.47;;;2.75;;
31073;SDS011;17730;53.552;9.940;2022-10-17T04:34:10;5.55;;;2.53;;
31073;SDS011;17730;53.552;9.940;2022-10-17T04:36:38;5.57;;;2.42;;
31073;SDS011;17730;53.552;9.940;2022-10-17T04:39:03;8.95;;;2.75;;
31073;SDS011;17730;53.552;9.940;2022-10-17T04:41:29;6.65;;;2.38;;
31073;SDS011;17730;53.552;9.940;2022-10-17T04:43:56;5.80;;;2.65;;
31073;SDS011;17730;53.552;9.940;2022-10-17T04:46:21;4.60;;;2.45;;
31073;SDS011;17730;53.552;9.940;2022-10-17T04:48:47;6.75;;;2.67;;
31073;SDS011;17730;53.552;9.940;2022-10-17T04:51:13;4.50;;;2.65;;
31073;SDS011;17730;53.552;9.940;2022-10-17T04:53:41;5.90;;;3.13;;
31073;SDS011;17730;53.552;9.940;2022-10-17T04:56:09;7.70;;;2.80;;
31073;SDS011;17730;53.552;9.940;2022-10-17T04:58:37;5.65;;;2.70;;
31073;SDS011;17730;53.552;9.940;2022-10-17T05:01:03;6.90;;;2.60;;
31073;SDS011;17730;53.552;9.940;2022-10-17T05:03:34;4.63;;;2.22;;
31073;SDS011;17730;53.552;9.940;2022-10-17T05:06:03;6.65;;;2.58;;
31073;SDS011;17730;53.552;9.940;2022-10-17T05:08:30;5.20;;;2.63;;
31073;SDS011;17730;53.552;9.940;2022-10-17T05:10:56;5.45;;;2.28;;
31073;SDS011;17730;53.552;9.940;2022-10-17T05:13:22;6.00;;;2.33;;
31073;SDS011;17730;53.552;9.940;2022-10-17T05:15:47;6.63;;;2.60;;
31073;SDS011;17730;53.552;9.940;2022-10-17T05:18:13;8.85;;;2.67;;
31073;SDS011;17730;53.552;9.940;2022-10-17T05:20:38;9.48;;;2.70;;
31073;SDS011;17730;53.552;9.940;2022-10-17T05:23:04;6.70;;;2.28;;
31073;SDS011;17730;53.552;9.940;2022-10-17T05:25:30;9.30;;;2.40;;
31073;SDS011;17730;53.552;9.940;2022-10-17T05:27:55;6.63;;;2.28;;
31073;SDS011;17730;53.552;9.940;2022-10-17T05:30:21;3.08;;;2.20;;
31073;SDS011;17730;53.552;9.940;2022-10-17T05:32:47;8.10;;;2.70;;
31073;SDS011;17730;53.552;9.940;2022-10-17T05:35:15;5.78;;;3.13;;
31073;SDS011;17730;53.552;9.940;2022-10-17T05:37:41;8.25;;;2.67;;
31073;SDS011;17730;53.552;9.940;2022-10-17T05:40:07;7.75;;;3.08;;
31073;SDS011;17730;53.552;9.940;2022-10-17T05:42:32;3.35;;;2.72;;
31073;SDS011;17730;53.552;9.940;2022-10-17T05:44:58;7.55;;;2.92;;
31073;SDS011;17730;53.552;9.940;2022-10-17T05:47:24;3.85;;;2.67;;
31073;SDS011;17730;53.552;9.940;2022-10-17T05:49:49;5.20;;;2.85;;
31073;SDS011;17730;53.552;9.940;2022-10-17T05:52:15;12.35;;;3.05;;
31073;SDS011;17730;53.552;9.940;2022-10-17T05:54:40;4.25;;;3.58;;
31073;SDS011;17730;53.552;9.940;2022-10-17T05:57:06;5.13;;;3.00;;
31073;SDS011;17730;53.552;9.940;2022-10-17T05:59:31;8.02;;;3.00;;
31073;SDS011;17730;53.552;9.940;2022-10-17T06:01:57;5.13;;;3.22;;
31073;SDS011;17730;53.552;9.940;2022-10-17T06:04:23;3.83;;;2.80;;
31073;SDS011;17730;53.552;9.940;2022-10-17T06:06:48;6.45;;;2.85;;
31073;SDS011;17730;53.552;9.940;2022-10-17T06:09:14;9.50;;;3.55;;
31073;SDS011;17730;53.552;9.940;2022-10-17T06:11:39;9.35;;;3.50;;
31073;SDS011;17730;53.552;9.940;2022-10-17T06:14:05;7.22;;;3.30;;
31073;SDS011;17730;53.552;9.940;2022-10-17T06:16:31;6.88;;;3.35;;
31073;SDS011;17730;53.552;9.940;2022-10-17T06:18:56;4.30;;;2.90;;
31073;SDS011;17730;53.552;9.940;2022-10-17T06:21:24;7.53;;;3.35;;
31073;SDS011;17730;53.552;9.940;2022-10-17T06:23:51;7.75;;;3.75;;
31073;SDS011;17730;53.552;9.940;2022-10-17T06:26:17;5.85;;;3.58;;
31073;SDS011;17730;53.552;9.940;2022-10-17T06:28:43;5.13;;;3.30;;
31073;SDS011;17730;53.552;9.940;2022-10-17T06:31:11;10.93;;;4.13;;
31073;SDS011;17730;53.552;9.940;2022-10-17T06:33:39;7.15;;;3.42;;
31073;SDS011;17730;53.552;9.940;2022-10-17T06:36:05;4.55;;;3.45;;
31073;SDS011;17730;53.552;9.940;2022-10-17T06:38:34;11.15;;;3.53;;
31073;SDS011;17730;53.552;9.940;2022-10-17T06:41:04;7.45;;;3.60;;
31073;SDS011;17730;53.552;9.940;2022-10-17T06:43:37;7.95;;;3.75;;
31073;SDS011;17730;53.552;9.940;2022-10-17T06:46:04;8.52;;;3.78;;
31073;SDS011;17730;53.552;9.940;2022-10-17T06:48:30;5.93;;;3.55;;
31073;SDS011;17730;53.552;9.940;2022-10-17T06:51:00;7.57;;;4.00;;
31073;SDS011;17730;53.552;9.940;2022-10-17T06:53:28;8.93;;;3.22;;
31073;SDS011;17730;53.552;9.940;2022-10-17T06:55:55;6.47;;;4.05;;
31073;SDS011;17730;53.552;9.940;2022-10-17T06:58:26;9.02;;;3.65;;
31073;SDS011;17730;53.552;9.940;2022-10-17T07:00:57;6.72;;;4.13;;
31073;SDS011;17730;53.552;9.940;2022-10-17T07:03:23;6.63;;;3.97;;
31073;SDS011;17730;53.552;9.940;2022-10-17T07:05:52;7.90;;;3.63;;
31073;SDS011;17730;53.552;9.940;2022-10-17T07:08:18;7.68;;;3.67;;
31073;SDS011;17730;53.552;9.940;2022-10-17T07:10:44;5.80;;;4.10;;
31073;SDS011;17730;53.552;9.940;2022-10-17T07:13:10;6.38;;;3.55;;
31073;SDS011;17730;53.552;9.940;2022-10-17T07:15:36;10.20;;;4.18;;
31073;SDS011;17730;53.552;9.940;2022-10-17T07:18:02;4.30;;;3.33;;
31073;SDS011;17730;53.552;9.940;2022-10-17T07:20:28;8.45;;;4.07;;
31073;SDS011;17730;53.552;9.940;2022-10-17T07:22:54;7.93;;;3.50;;
31073;SDS011;17730;53.552;9.940;2022-10-17T07:25:20;8.13;;;3.78;;
31073;SDS011;17730;53.552;9.940;2022-10-17T07:27:47;9.13;;;4.28;;
31073;SDS011;17730;53.552;9.940;2022-10-17T07:30:13;10.07;;;4.03;;
31073;SDS011;17730;53.552;9.940;2022-10-17T07:32:40;8.88;;;3.53;;
31073;SDS011;17730;53.552;9.940;2022-10-17T07:35:06;6.45;;;3.45;;
31073;SDS011;17730;53.552;9.940;2022-10-17T07:37:32;7.13;;;3.10;;
31073;SDS011;17730;53.552;9.940;2022-10-17T07:39:58;7.28;;;4.40;;
31073;SDS011;17730;53.552;9.940;2022-10-17T07:42:23;6.45;;;3.45;;
31073;SDS011;17730;53.552;9.940;2022-10-17T07:44:49;7.47;;;3.50;;
31073;SDS011;17730;53.552;9.940;2022-10-17T07:47:15;7.93;;;3.20;;
31073;SDS011;17730;53.552;9.940;2022-10-17T07:49:41;6.20;;;2.90;;
31073;SDS011;17730;53.552;9.940;2022-10-17T07:52:09;8.00;;;3.63;;
31073;SDS011;17730;53.552;9.940;2022-10-17T07:54:38;10.70;;;4.03;;
31073;SDS011;17730;53.552;9.940;2022-10-17T07:57:04;6.80;;;3.13;;
31073;SDS011;17730;53.552;9.940;2022-10-17T07:59:31;4.47;;;3.20;;
31073;SDS011;17730;53.552;9.940;2022-10-17T08:01:58;11.55;;;4.20;;
31073;SDS011;17730;53.552;9.940;2022-10-17T08:04:24;7.65;;;3.65;;
31073;SDS011;17730;53.552;9.940;2022-10-17T08:06:51;11.07;;;4.13;;
31073;SDS011;17730;53.552;9.940;2022-10-17T08:09:17;13.90;;;4.03;;
31073;SDS011;17730;53.552;9.940;2022-10-17T08:11:43;9.05;;;3.53;;
31073;SDS011;17730;53.552;9.940;2022-10-17T08:14:12;10.25;;;3.72;;
31073;SDS011;17730;53.552;9.940;2022-10-17T08:16:41;12.55;;;3.80;;
31073;SDS011;17730;53.552;9.940;2022-10-17T08:19:07;9.50;;;3.28;;
31073;SDS011;17730;53.552;9.940;2022-10-17T08:21:35;14.73;;;4.28;;
31073;SDS011;17730;53.552;9.940;2022-10-17T08:24:01;8.82;;;3.50;;
31073;SDS011;17730;53.552;9.940;2022-10-17T08:26:28;8.70;;;3.55;;
31073;SDS011;17730;53.552;9.940;2022-10-17T08:28:54;6.28;;;3.10;;
31073;SDS011;17730;53.552;9.940;2022-10-17T08:31:20;4.28;;;3.38;;
31073;SDS011;17730;53.552;9.940;2022-10-17T08:33:47;7.43;;;4.20;;
31073;SDS011;17730;53.552;9.940;2022-10-17T08:36:15;12.18;;;3.35;;
31073;SDS011;17730;53.552;9.940;2022-10-17T08:38:41;17.33;;;3.63;;
31073;SDS011;17730;53.552;9.940;2022-10-17T08:44:29;10.13;;;3.97;;
31073;SDS011;17730;53.552;9.940;2022-10-17T08:47:02;19.15;;;4.13;;
31073;SDS011;17730;53.552;9.940;2022-10-17T08:49:45;14.90;;;4.15;;
31073;SDS011;17730;53.552;9.940;2022-10-17T08:55:04;12.93;;;3.58;;
31073;SDS011;17730;53.552;9.940;2022-10-17T08:57:40;8.07;;;4.28;;
31073;SDS011;17730;53.552;9.940;2022-10-17T09:00:12;8.95;;;4.00;;
31073;SDS011;17730;53.552;9.940;2022-10-17T09:02:46;13.07;;;4.53;;
31073;SDS011;17730;53.552;9.940;2022-10-17T09:10:54;12.10;;;3.72;;
31073;SDS011;17730;53.552;9.940;2022-10-17T09:13:42;15.32;;;4.25;;
31073;SDS011;17730;53.552;9.940;2022-10-17T09:19:35;10.38;;;4.53;;
31073;SDS011;17730;53.552;9.940;2022-10-17T09:22:20;16.67;;;4.82;;
31073;SDS011;17730;53.552;9.940;2022-10-17T09:27:24;17.90;;;4.88;;
31073;SDS011;17730;53.552;9.940;2022-10-17T09:32:40;7.80;;;3.60;;
31073;SDS011;17730;53.552;9.940;2022-10-17T09:35:10;11.43;;;4.00;;
31073;SDS011;17730;53.552;9.940;2022-10-17T09:37:37;9.57;;;4.25;;
31073;SDS011;17730;53.552;9.940;2022-10-17T09:40:04;10.80;;;3.38;;
31073;SDS011;17730;53.552;9.940;2022-10-17T09:42:35;18.33;;;4.47;;
31073;SDS011;17730;53.552;9.940;2022-10-17T09:45:12;12.40;;;5.03;;
31073;SDS011;17730;53.552;9.940;2022-10-17T09:47:47;11.38;;;5.75;;
31073;SDS011;17730;53.552;9.940;2022-10-17T09:50:25;12.05;;;3.80;;
31073;SDS011;17730;53.552;9.940;2022-10-17T09:53:04;7.47;;;3.63;;
31073;SDS011;17730;53.552;9.940;2022-10-17T09:55:38;9.90;;;4.70;;
31073;SDS011;17730;53.552;9.940;2022-10-17T09:58:11;8.77;;;4.53;;
31073;SDS011;17730;53.552;9.940;2022-10-17T10:00:45;12.88;;;4.90;;
31073;SDS011;17730;53.552;9.940;2022-10-17T10:05:59;15.95;;;5.18;;
31073;SDS011;17730;53.552;9.940;2022-10-17T10:08:34;12.95;;;4.20;;
31073;SDS011;17730;53.552;9.940;2022-10-17T10:11:03;13.57;;;4.72;;
31073;SDS011;17730;53.552;9.940;2022-10-17T10:13:31;11.50;;;5.72;;
31073;SDS011;17730;53.552;9.940;2022-10-17T10:18:41;16.75;;;4.25;;
31073;SDS011;17730;53.552;9.940;2022-10-17T10:21:12;9.15;;;4.82;;
31073;SDS011;17730;53.552;9.940;2022-10-17T10:24:29;17.88;;;4.78;;
31073;SDS011;17730;53.552;9.940;2022-10-17T10:26:43;12.90;;;4.20;;
31073;SDS011;17730;53.552;9.940;2022-10-17T10:32:31;12.43;;;4.68;;
31073;SDS011;17730;53.552;9.940;2022-10-17T10:35:06;12.98;;;5.07;;
31073;SDS011;17730;53.552;9.940;2022-10-17T10:37:58;13.82;;;5.07;;
31073;SDS011;17730;53.552;9.940;2022-10-17T10:42:58;15.48;;;4.80;;
31073;SDS011;17730;53.552;9.940;2022-10-17T10:45:28;12.85;;;4.78;;
31073;SDS011;17730;53.552;9.940;2022-10-17T10:48:17;15.15;;;5.93;;
31073;SDS011;17730;53.552;9.940;2022-10-17T10:56:18;14.32;;;5.03;;
31073;SDS011;17730;53.552;9.940;2022-10-17T11:01:13;12.95;;;4.47;;
31073;SDS011;17730;53.552;9.940;2022-10-17T11:03:47;11.52;;;3.83;;
31073;SDS011;17730;53.552;9.940;2022-10-17T11:06:27;10.32;;;4.55;;
31073;SDS011;17730;53.552;9.940;2022-10-17T11:12:10;16.67;;;5.38;;
31073;SDS011;17730;53.552;9.940;2022-10-17T11:19:44;10.13;;;4.90;;
31073;SDS011;17730;53.552;9.940;2022-10-17T11:22:23;13.55;;;4.22;;
31073;SDS011;17730;53.552;9.940;2022-10-17T11:24:55;14.07;;;5.00;;
31073;SDS011;17730;53.552;9.940;2022-10-17T11:27:25;12.80;;;4.65;;
31073;SDS011;17730;53.552;9.940;2022-10-17T11:29:53;10.48;;;3.83;;
31073;SDS011;17730;53.552;9.940;2022-10-17T11:32:22;8.20;;;4.85;;
31073;SDS011;17730;53.552;9.940;2022-10-17T11:34:51;11.32;;;4.22;;
31073;SDS011;17730;53.552;9.940;2022-10-17T11:38:00;10.32;;;4.55;;
31073;SDS011;17730;53.552;9.940;2022-10-17T11:40:37;13.05;;;4.22;;
31073;SDS011;17730;53.552;9.940;2022-10-17T11:43:13;13.38;;;5.13;;
31073;SDS011;17730;53.552;9.940;2022-10-17T11:45:43;13.15;;;4.53;;
31073;SDS011;17730;53.552;9.940;2022-10-17T11:48:15;13.15;;;4.68;;
31073;SDS011;17730;53.552;9.940;2022-10-17T11:50:56;16.23;;;4.28;;
31073;SDS011;17730;53.552;9.940;2022-10-17T11:53:30;11.77;;;4.68;;
31073;SDS011;17730;53.552;9.940;2022-10-17T11:56:07;10.73;;;3.97;;
31073;SDS011;17730;53.552;9.940;2022-10-17T11:58:38;10.48;;;4.63;;
31073;SDS011;17730;53.552;9.940;2022-10-17T12:01:35;12.00;;;4.45;;
31073;SDS011;17730;53.552;9.940;2022-10-17T12:04:22;15.75;;;5.57;;
31073;SDS011;17730;53.552;9.940;2022-10-17T12:07:10;16.25;;;5.80;;
31073;SDS011;17730;53.552;9.940;2022-10-17T12:10:18;11.88;;;5.28;;
31073;SDS011;17730;53.552;9.940;2022-10-17T12:12:54;10.63;;;5.90;;
31073;SDS011;17730;53.552;9.940;2022-10-17T12:17:55;12.15;;;4.65;;
31073;SDS011;17730;53.552;9.940;2022-10-17T12:20:30;13.00;;;5.65;;
31073;SDS011;17730;53.552;9.940;2022-10-17T12:25:53;7.38;;;5.40;;
31073;SDS011;17730;53.552;9.940;2022-10-17T12:28:23;8.93;;;5.63;;
31073;SDS011;17730;53.552;9.940;2022-10-17T12:30:56;8.85;;;6.00;;
31073;SDS011;17730;53.552;9.940;2022-10-17T12:35:49;13.05;;;6.80;;
31073;SDS011;17730;53.552;9.940;2022-10-17T12:51:15;16.00;;;6.50;;
31073;SDS011;17730;53.552;9.940;2022-10-17T12:56:28;11.40;;;6.65;;
31073;SDS011;17730;53.552;9.940;2022-10-17T12:58:54;15.73;;;6.40;;
31073;SDS011;17730;53.552;9.940;2022-10-17T13:01:32;13.35;;;5.88;;
31073;SDS011;17730;53.552;9.940;2022-10-17T13:04:00;19.08;;;7.57;;
31073;SDS011;17730;53.552;9.940;2022-10-17T13:06:30;12.18;;;6.95;;
31073;SDS011;17730;53.552;9.940;2022-10-17T13:09:03;8.88;;;5.43;;
31073;SDS011;17730;53.552;9.940;2022-10-17T13:11:39;11.38;;;7.07;;
31073;SDS011;17730;53.552;9.940;2022-10-17T13:14:13;14.20;;;6.45;;
31073;SDS011;17730;53.552;9.940;2022-10-17T13:16:51;15.43;;;7.47;;
31073;SDS011;17730;53.552;9.940;2022-10-17T13:19:23;17.50;;;8.57;;
31073;SDS011;17730;53.552;9.940;2022-10-17T13:22:09;18.08;;;8.50;;
31073;SDS011;17730;53.552;9.940;2022-10-17T13:24:44;17.80;;;8.52;;
31073;SDS011;17730;53.552;9.940;2022-10-17T13:32:49;13.40;;;8.38;;
31073;SDS011;17730;53.552;9.940;2022-10-17T13:35:20;16.95;;;9.20;;
31073;SDS011;17730;53.552;9.940;2022-10-17T13:37:49;16.50;;;8.27;;
31073;SDS011;17730;53.552;9.940;2022-10-17T13:40:16;14.60;;;8.85;;
31073;SDS011;17730;53.552;9.940;2022-10-17T13:42:43;15.07;;;8.55;;
31073;SDS011;17730;53.552;9.940;2022-10-17T13:45:13;15.07;;;9.50;;
31073;SDS011;17730;53.552;9.940;2022-10-17T13:47:50;15.23;;;9.32;;
31073;SDS011;17730;53.552;9.940;2022-10-17T13:50:18;18.58;;;8.80;;
31073;SDS011;17730;53.552;9.940;2022-10-17T13:53:04;17.02;;;9.98;;
31073;SDS011;17730;53.552;9.940;2022-10-17T13:56:04;14.30;;;8.75;;
31073;SDS011;17730;53.552;9.940;2022-10-17T13:58:50;11.82;;;8.65;;
31073;SDS011;17730;53.552;9.940;2022-10-17T14:01:32;16.40;;;8.55;;
31073;SDS011;17730;53.552;9.940;2022-10-17T14:03:58;18.52;;;9.32;;
31073;SDS011;17730;53.552;9.940;2022-10-17T14:06:24;13.45;;;9.60;;
31073;SDS011;17730;53.552;9.940;2022-10-17T14:08:53;12.82;;;8.65;;
31073;SDS011;17730;53.552;9.940;2022-10-17T14:11:37;14.05;;;8.85;;
31073;SDS011;17730;53.552;9.940;2022-10-17T14:14:05;17.38;;;9.00;;
31073;SDS011;17730;53.552;9.940;2022-10-17T14:16:40;12.00;;;9.32;;
31073;SDS011;17730;53.552;9.940;2022-10-17T14:19:29;15.57;;;8.73;;
31073;SDS011;17730;53.552;9.940;2022-10-17T14:24:42;20.77;;;9.45;;
31073;SDS011;17730;53.552;9.940;2022-10-17T14:29:55;19.35;;;10.55;;
31073;SDS011;17730;53.552;9.940;2022-10-17T14:34:54;16.65;;;10.40;;
31073;SDS011;17730;53.552;9.940;2022-10-17T14:40:25;18.73;;;11.50;;
31073;SDS011;17730;53.552;9.940;2022-10-17T14:42:53;16.38;;;10.32;;
31073;SDS011;17730;53.552;9.940;2022-10-17T14:45:31;21.40;;;9.98;;
31073;SDS011;17730;53.552;9.940;2022-10-17T14:48:11;13.20;;;9.32;;
31073;SDS011;17730;53.552;9.940;2022-10-17T14:50:40;15.15;;;10.05;;
31073;SDS011;17730;53.552;9.940;2022-10-17T14:55:36;13.20;;;8.90;;
31073;SDS011;17730;53.552;9.940;2022-10-17T14:58:21;19.20;;;9.90;;
31073;SDS011;17730;53.552;9.940;2022-10-17T15:00:53;17.80;;;10.90;;
31073;SDS011;17730;53.552;9.940;2022-10-17T15:03:19;20.17;;;11.38;;
31073;SDS011;17730;53.552;9.940;2022-10-17T15:05:45;16.42;;;11.18;;
31073;SDS011;17730;53.552;9.940;2022-10-17T15:08:15;13.55;;;9.73;;
31073;SDS011;17730;53.552;9.940;2022-10-17T15:10:43;20.73;;;11.50;;
31073;SDS011;17730;53.552;9.940;2022-10-17T15:13:09;19.83;;;11.18;;
31073;SDS011;17730;53.552;9.940;2022-10-17T15:15:36;19.17;;;11.40;;
31073;SDS011;17730;53.552;9.940;2022-10-17T15:18:03;18.38;;;12.52;;
31073;SDS011;17730;53.552;9.940;2022-10-17T15:20:30;17.38;;;11.75;;
31073;SDS011;17730;53.552;9.940;2022-10-17T15:22:57;16.98;;;13.18;;
31073;SDS011;17730;53.552;9.940;2022-10-17T15:25:24;17.75;;;12.35;;
31073;SDS011;17730;53.552;9.940;2022-10-17T15:27:51;21.38;;;13.98;;
31073;SDS011;17730;53.552;9.940;2022-10-17T15:30:21;18.98;;;13.43;;
31073;SDS011;17730;53.552;9.940;2022-10-17T15:35:16;20.52;;;12.25;;
31073;SDS011;17730;53.552;9.940;2022-10-17T15:37:42;18.58;;;13.05;;
31073;SDS011;17730;53.552;9.940;2022-10-17T15:40:12;22.70;;;13.65;;
31073;SDS011;17730;53.552;9.940;2022-10-17T15:42:39;22.67;;;14.90;;
31073;SDS011;17730;53.552;9.940;2022-10-17T15:45:05;20.55;;;14.48;;
31073;SDS011;17730;53.552;9.940;2022-10-17T15:47:32;21.27;;;14.27;;
31073;SDS011;17730;53.552;9.940;2022-10-17T15:49:58;21.15;;;14.35;;
31073;SDS011;17730;53.552;9.940;2022-10-17T15:52:25;19.77;;;13.25;;
31073;SDS011;17730;53.552;9.940;2022-10-17T15:54:52;17.52;;;12.38;;
31073;SDS011;17730;53.552;9.940;2022-10-17T15:57:21;18.00;;;12.35;;
31073;SDS011;17730;53.552;9.940;2022-10-17T15:59:55;15.45;;;11.75;;
31073;SDS011;17730;53.552;9.940;2022-10-17T16:02:23;20.00;;;13.32;;
31073;SDS011;17730;53.552;9.940;2022-10-17T16:04:49;15.95;;;11.95;;
31073;SDS011;17730;53.552;9.940;2022-10-17T16:07:16;21.55;;;13.75;;
31073;SDS011;17730;53.552;9.940;2022-10-17T16:09:42;23.50;;;14.73;;
31073;SDS011;17730;53.552;9.940;2022-10-17T16:12:25;21.55;;;13.25;;
31073;SDS011;17730;53.552;9.940;2022-10-17T16:14:52;17.83;;;12.60;;
31073;SDS011;17730;53.552;9.940;2022-10-17T16:17:18;21.08;;;13.20;;
31073;SDS011;17730;53.552;9.940;2022-10-17T16:19:44;19.27;;;13.23;;
31073;SDS011;17730;53.552;9.940;2022-10-17T16:22:19;18.30;;;13.02;;
31073;SDS011;17730;53.552;9.940;2022-10-17T16:24:50;16.55;;;12.45;;
31073;SDS011;17730;53.552;9.940;2022-10-17T16:27:22;16.35;;;12.23;;
31073;SDS011;17730;53.552;9.940;2022-10-17T16:29:47;17.52;;;12.93;;
31073;SDS011;17730;53.552;9.940;2022-10-17T16:32:13;14.52;;;12.77;;
31073;SDS011;17730;53.552;9.940;2022-10-17T16:34:38;18.65;;;13.75;;
31073;SDS011;17730;53.552;9.940;2022-10-17T16:37:04;17.55;;;13.43;;
31073;SDS011;17730;53.552;9.940;2022-10-17T16:39:30;19.55;;;13.30;;
31073;SDS011;17730;53.552;9.940;2022-10-17T16:41:55;21.23;;;15.43;;
31073;SDS011;17730;53.552;9.940;2022-10-17T16:44:21;25.75;;;14.75;;
31073;SDS011;17730;53.552;9.940;2022-10-17T16:46:47;20.33;;;14.40;;
31073;SDS011;17730;53.552;9.940;2022-10-17T16:49:12;23.75;;;15.48;;
31073;SDS011;17730;53.552;9.940;2022-10-17T16:51:40;18.60;;;13.38;;
31073;SDS011;17730;53.552;9.940;2022-10-17T16:54:05;20.48;;;13.50;;
31073;SDS011;17730;53.552;9.940;2022-10-17T16:56:32;18.30;;;14.05;;
31073;SDS011;17730;53.552;9.940;2022-10-17T16:58:59;20.77;;;14.23;;
31073;SDS011;17730;53.552;9.940;2022-10-17T17:01:25;20.35;;;15.18;;
31073;SDS011;17730;53.552;9.940;2022-10-17T17:03:51;26.50;;;15.05;;
31073;SDS011;17730;53.552;9.940;2022-10-17T17:06:18;26.13;;;16.45;;